createdAt,value
2022-08-28T00:01:24.622Z,100.00
2022-08-28T00:03:51.124Z,100.00
2022-08-28T00:06:17.751Z,100.00
2022-08-28T00:08:44.504Z,100.00
2022-08-28T00:11:11.045Z,100.00
2022-08-28T00:13:43.957Z,100.00
2022-08-28T00:16:11.721Z,100.00
2022-08-28T00:18:40.197Z,100.00
2022-08-28T00:21:08.068Z,100.00
2022-08-28T00:23:42.502Z,100.00
2022-08-28T00:26:09.863Z,100.00
2022-08-28T00:28:38.058Z,100.00
2022-08-28T00:31:04.750Z,100.00
2022-08-28T00:33:33.766Z,100.00
2022-08-28T00:36:01.819Z,100.00
2022-08-28T00:38:30.774Z,100.00
2022-08-28T00:41:01.751Z,100.00
2022-08-28T00:43:37.862Z,100.00
2022-08-28T00:46:11.990Z,100.00
2022-08-28T00:48:39.515Z,100.00
2022-08-28T00:51:07.186Z,100.00
2022-08-28T00:53:33.819Z,100.00
2022-08-28T00:56:09.466Z,100.00
2022-08-28T00:58:42.325Z,100.00
2022-08-28T01:01:09.351Z,100.00
2022-08-28T01:03:36.561Z,100.00
2022-08-28T01:06:03.766Z,100.00
2022-08-28T01:08:30.812Z,100.00
2022-08-28T01:11:01.051Z,100.00
2022-08-28T01:13:27.792Z,100.00
2022-08-28T01:15:56.040Z,100.00
2022-08-28T01:18:23.396Z,100.00
2022-08-28T01:21:27.563Z,100.00
2022-08-28T01:24:04.858Z,100.00
2022-08-28T01:26:31.682Z,100.00
2022-08-28T01:28:59.446Z,100.00
2022-08-28T01:31:27.990Z,100.00
2022-08-28T01:33:56.115Z,100.00
2022-08-28T01:36:22.569Z,100.00
2022-08-28T01:38:56.136Z,100.00
2022-08-28T01:41:22.730Z,100.00
2022-08-28T01:43:49.245Z,100.00
2022-08-28T01:46:15.668Z,100.00
2022-08-28T01:48:44.476Z,100.00
2022-08-28T01:51:12.345Z,100.00
2022-08-28T01:53:39.877Z,100.00
2022-08-28T01:56:11.282Z,100.00
2022-08-28T01:58:38.623Z,100.00
2022-08-28T02:01:13.499Z,100.00
2022-08-28T02:03:42.970Z,100.00
2022-08-28T02:06:10.291Z,100.00
2022-08-28T02:08:37.152Z,100.00
2022-08-28T02:11:07.619Z,100.00
2022-08-28T02:13:36.536Z,100.00
2022-08-28T02:16:07.052Z,100.00
2022-08-28T02:18:33.574Z,100.00
2022-08-28T02:21:00.180Z,100.00
2022-08-28T02:23:27.216Z,100.00
2022-08-28T02:25:53.923Z,100.00
2022-08-28T02:28:20.391Z,100.00
2022-08-28T02:30:46.930Z,100.00
2022-08-28T02:33:13.331Z,100.00
2022-08-28T02:35:39.968Z,100.00
2022-08-28T02:38:06.472Z,100.00
2022-08-28T02:40:32.919Z,100.00
2022-08-28T02:42:59.735Z,100.00
2022-08-28T02:45:31.365Z,100.00
2022-08-28T02:47:57.851Z,100.00
2022-08-28T02:50:24.538Z,100.00
2022-08-28T02:52:51.935Z,100.00
2022-08-28T02:55:19.605Z,100.00
2022-08-28T02:57:48.734Z,100.00
2022-08-28T03:00:21.094Z,100.00
2022-08-28T03:02:48.750Z,100.00
2022-08-28T03:05:17.676Z,100.00
2022-08-28T03:07:45.080Z,100.00
2022-08-28T03:10:11.778Z,100.00
2022-08-28T03:12:38.837Z,100.00
2022-08-28T03:15:06.455Z,100.00
2022-08-28T03:17:33.206Z,100.00
2022-08-28T03:19:59.635Z,100.00
2022-08-28T03:22:26.272Z,100.00
2022-08-28T03:24:52.762Z,100.00
2022-08-28T03:27:19.270Z,100.00
2022-08-28T03:29:45.609Z,100.00
2022-08-28T03:32:12.131Z,100.00
2022-08-28T03:34:38.598Z,100.00
2022-08-28T03:37:04.965Z,100.00
2022-08-28T03:39:31.674Z,100.00
2022-08-28T03:41:58.354Z,100.00
2022-08-28T03:44:24.831Z,100.00
2022-08-28T03:46:51.346Z,100.00
2022-08-28T03:49:18.126Z,100.00
2022-08-28T03:51:46.094Z,100.00
2022-08-28T03:54:13.032Z,100.00
2022-08-28T03:56:43.369Z,100.00
2022-08-28T03:59:10.465Z,100.00
2022-08-28T04:01:36.964Z,100.00
2022-08-28T04:04:04.002Z,100.00
2022-08-28T04:06:30.697Z,100.00
2022-08-28T04:09:00.092Z,100.00
2022-08-28T04:11:27.334Z,100.00
2022-08-28T04:13:53.801Z,100.00
2022-08-28T04:16:21.690Z,100.00
2022-08-28T04:18:49.542Z,100.00
2022-08-28T04:21:19.432Z,100.00
2022-08-28T04:23:47.370Z,100.00
2022-08-28T04:26:17.121Z,100.00
2022-08-28T04:28:43.688Z,100.00
2022-08-28T04:31:10.590Z,100.00
2022-08-28T04:33:38.158Z,100.00
2022-08-28T04:36:10.387Z,100.00
2022-08-28T04:38:43.548Z,100.00
2022-08-28T04:41:13.497Z,100.00
2022-08-28T04:43:40.311Z,100.00
2022-08-28T04:46:10.973Z,100.00
2022-08-28T04:48:39.912Z,100.00
2022-08-28T04:51:09.200Z,100.00
2022-08-28T04:53:38.057Z,100.00
2022-08-28T04:56:07.385Z,100.00
2022-08-28T04:58:34.260Z,100.00
2022-08-28T05:01:06.954Z,100.00
2022-08-28T05:03:33.617Z,100.00
2022-08-28T05:06:00.269Z,100.00
2022-08-28T05:08:26.824Z,100.00
2022-08-28T05:10:54.872Z,100.00
2022-08-28T05:13:22.309Z,100.00
2022-08-28T05:15:50.951Z,100.00
2022-08-28T05:18:19.752Z,100.00
2022-08-28T05:20:47.975Z,100.00
2022-08-28T05:23:16.733Z,100.00
2022-08-28T05:25:47.925Z,100.00
2022-08-28T05:28:16.460Z,100.00
2022-08-28T05:30:44.050Z,100.00
2022-08-28T05:33:13.489Z,100.00
2022-08-28T05:35:44.642Z,100.00
2022-08-28T05:38:13.377Z,100.00
2022-08-28T05:40:44.432Z,100.00
2022-08-28T05:43:12.667Z,100.00
2022-08-28T05:45:41.389Z,100.00
2022-08-28T05:48:11.449Z,100.00
2022-08-28T05:50:39.086Z,100.00
2022-08-28T05:53:09.451Z,100.00
2022-08-28T05:55:40.104Z,100.00
2022-08-28T05:58:06.640Z,100.00
2022-08-28T06:00:33.006Z,100.00
2022-08-28T06:02:59.508Z,100.00
2022-08-28T06:05:25.871Z,100.00
2022-08-28T06:07:54.679Z,100.00
2022-08-28T06:10:21.054Z,100.00
2022-08-28T06:12:47.701Z,100.00
2022-08-28T06:15:14.154Z,100.00
2022-08-28T06:17:40.947Z,100.00
2022-08-28T06:20:08.037Z,100.00
2022-08-28T06:22:34.542Z,100.00
2022-08-28T06:25:01.018Z,100.00
2022-08-28T06:27:30.413Z,100.00
2022-08-28T06:29:56.917Z,100.00
2022-08-28T06:32:23.379Z,100.00
2022-08-28T06:34:49.897Z,100.00
2022-08-28T06:37:16.824Z,100.00
2022-08-28T06:39:43.407Z,100.00
2022-08-28T06:42:09.784Z,100.00
2022-08-28T06:44:36.854Z,100.00
2022-08-28T06:47:03.435Z,100.00
2022-08-28T06:49:29.942Z,100.00
2022-08-28T06:51:56.536Z,100.00
2022-08-28T06:54:23.745Z,100.00
2022-08-28T06:56:51.264Z,100.00
2022-08-28T06:59:17.955Z,100.00
2022-08-28T07:01:44.427Z,100.00
2022-08-28T07:04:13.217Z,100.00
2022-08-28T07:06:42.129Z,100.00
2022-08-28T07:09:10.269Z,100.00
2022-08-28T07:11:37.296Z,100.00
2022-08-28T07:14:04.151Z,100.00
2022-08-28T07:16:39.021Z,100.00
2022-08-28T07:19:10.726Z,100.00
2022-08-28T07:21:39.859Z,100.00
2022-08-28T07:24:08.471Z,100.00
2022-08-28T07:26:35.851Z,100.00
2022-08-28T07:29:09.357Z,100.00
2022-08-28T07:31:36.515Z,100.00
2022-08-28T07:34:04.075Z,100.00
2022-08-28T07:36:30.518Z,100.00
2022-08-28T07:38:59.674Z,100.00
2022-08-28T07:41:28.719Z,100.00
2022-08-28T07:43:56.304Z,100.00
2022-08-28T07:46:22.757Z,100.00
2022-08-28T07:48:49.252Z,100.00
2022-08-28T07:51:15.879Z,100.00
2022-08-28T07:53:42.362Z,100.00
2022-08-28T07:56:09.438Z,100.00
2022-08-28T07:58:37.432Z,100.00
2022-08-28T08:01:04.116Z,100.00
2022-08-28T08:03:31.788Z,100.00
2022-08-28T08:06:04.072Z,100.00
2022-08-28T08:08:32.191Z,100.00
2022-08-28T08:11:01.702Z,100.00
2022-08-28T08:13:30.233Z,100.00
2022-08-28T08:16:28.260Z,100.00
2022-08-28T08:18:54.895Z,100.00
2022-08-28T08:21:21.891Z,100.00
2022-08-28T08:23:48.673Z,100.00
2022-08-28T08:26:25.891Z,100.00
2022-08-28T08:28:52.506Z,100.00
2022-08-28T08:31:25.115Z,100.00
2022-08-28T08:33:55.795Z,100.00
2022-08-28T08:36:24.163Z,98.46
2022-08-28T08:38:59.142Z,95.72
2022-08-28T08:41:34.766Z,94.13
2022-08-28T08:44:09.696Z,96.99
2022-08-28T08:47:05.538Z,96.23
2022-08-28T08:49:48.370Z,92.51
2022-08-28T08:52:29.971Z,96.54
2022-08-28T08:55:28.668Z,97.99
2022-08-28T08:58:23.994Z,99.50
2022-08-28T09:01:09.000Z,97.00
2022-08-28T09:03:50.268Z,90.87
2022-08-28T09:06:45.121Z,89.27
2022-08-28T09:09:34.729Z,91.33
2022-08-28T09:12:05.570Z,86.30
2022-08-28T09:14:59.215Z,84.32
2022-08-28T09:17:31.319Z,87.52
2022-08-28T09:19:58.093Z,85.36
2022-08-28T09:22:24.486Z,84.52
2022-08-28T09:24:52.524Z,86.78
2022-08-28T09:27:30.769Z,87.72
2022-08-28T09:30:07.312Z,94.28
2022-08-28T09:32:38.743Z,94.77
2022-08-28T09:35:07.815Z,96.89
2022-08-28T09:37:36.488Z,94.03
2022-08-28T09:40:30.535Z,95.46
2022-08-28T09:43:02.361Z,96.75
2022-08-28T09:45:30.616Z,96.01
2022-08-28T09:47:58.456Z,94.51
2022-08-28T09:50:31.396Z,94.58
2022-08-28T09:53:13.618Z,92.33
2022-08-28T09:56:12.625Z,91.88
2022-08-28T09:58:55.483Z,90.79
2022-08-28T10:01:44.825Z,89.58
2022-08-28T10:04:14.749Z,85.52
2022-08-28T10:06:44.853Z,87.12
2022-08-28T10:09:26.805Z,89.64
2022-08-28T10:11:59.152Z,91.26
2022-08-28T10:14:39.504Z,93.81
2022-08-28T10:17:16.670Z,91.71
2022-08-28T10:20:06.466Z,94.97
2022-08-28T10:22:53.426Z,90.05
2022-08-28T10:25:44.358Z,92.37
2022-08-28T10:28:42.831Z,91.07
2022-08-28T10:31:31.545Z,89.01
2022-08-28T10:34:07.749Z,88.13
2022-08-28T10:36:36.650Z,88.64
2022-08-28T10:39:21.194Z,90.11
2022-08-28T10:41:58.211Z,91.54
2022-08-28T10:44:36.974Z,90.13
2022-08-28T10:47:05.603Z,88.99
2022-08-28T10:49:37.161Z,86.13
2022-08-28T10:52:09.223Z,82.45
2022-08-28T10:54:54.723Z,85.55
2022-08-28T10:57:37.284Z,81.34
2022-08-28T11:00:16.672Z,80.39
2022-08-28T11:02:51.403Z,76.84
2022-08-28T11:05:24.230Z,78.54
2022-08-28T11:07:58.534Z,77.35
2022-08-28T11:10:50.038Z,75.79
2022-08-28T11:13:55.709Z,71.09
2022-08-28T11:16:24.512Z,70.15
2022-08-28T11:19:14.458Z,66.92
2022-08-28T11:22:03.558Z,65.52
2022-08-28T11:24:39.031Z,68.83
2022-08-28T11:27:31.547Z,66.93
2022-08-28T11:30:03.372Z,68.13
2022-08-28T11:32:51.469Z,67.74
2022-08-28T11:35:20.868Z,63.84
2022-08-28T11:37:52.436Z,62.78
2022-08-28T11:40:28.020Z,66.61
2022-08-28T11:43:13.021Z,66.59
2022-08-28T11:45:46.635Z,71.55
2022-08-28T11:48:22.896Z,72.40
2022-08-28T11:50:54.480Z,71.91
2022-08-28T11:53:29.671Z,72.44
2022-08-28T11:56:31.046Z,69.25
2022-08-28T11:59:37.201Z,66.49
2022-08-28T12:02:41.178Z,63.08
2022-08-28T12:05:16.207Z,63.44
2022-08-28T12:07:48.472Z,64.02
2022-08-28T12:10:24.080Z,62.52
2022-08-28T12:12:57.678Z,60.70
2022-08-28T12:15:30.119Z,58.71
2022-08-28T12:18:03.938Z,59.08
2022-08-28T12:20:39.459Z,61.18
2022-08-28T12:23:37.091Z,59.71
2022-08-28T12:26:27.065Z,56.94
2022-08-28T12:29:01.136Z,57.41
2022-08-28T12:31:56.774Z,54.40
2022-08-28T12:34:34.553Z,54.62
2022-08-28T12:37:02.850Z,53.87
2022-08-28T12:39:32.058Z,52.46
2022-08-28T12:41:59.383Z,49.88
2022-08-28T12:44:29.556Z,52.41
2022-08-28T12:46:56.261Z,53.71
2022-08-28T12:49:37.418Z,56.71
2022-08-28T12:52:25.963Z,57.75
2022-08-28T12:54:54.873Z,58.54
2022-08-28T12:57:24.178Z,58.45
2022-08-28T12:59:53.570Z,58.91
2022-08-28T13:02:33.952Z,58.16
2022-08-28T13:05:07.408Z,59.26
2022-08-28T13:07:46.869Z,54.29
2022-08-28T13:10:42.536Z,53.99
2022-08-28T13:13:18.954Z,53.50
2022-08-28T13:15:51.683Z,52.16
2022-08-28T13:18:39.907Z,50.92
2022-08-28T13:21:32.522Z,50.75
2022-08-28T13:24:21.288Z,51.40
2022-08-28T13:26:50.337Z,51.58
2022-08-28T13:29:19.893Z,51.83
2022-08-28T13:31:56.642Z,52.24
2022-08-28T13:34:25.970Z,56.79
2022-08-28T13:36:56.425Z,59.74
2022-08-28T13:39:22.812Z,60.04
2022-08-28T13:41:54.335Z,60.89
2022-08-28T13:44:33.023Z,61.28
2022-08-28T13:47:01.983Z,61.91
2022-08-28T13:49:28.656Z,61.78
2022-08-28T13:51:57.979Z,59.67
2022-08-28T13:54:27.155Z,58.69
2022-08-28T13:56:54.766Z,57.01
2022-08-28T13:59:21.489Z,55.63
2022-08-28T14:01:50.611Z,53.49
2022-08-28T14:04:17.222Z,55.12
2022-08-28T14:06:44.550Z,54.86
2022-08-28T14:09:11.953Z,54.40
2022-08-28T14:11:38.725Z,57.39
2022-08-28T14:14:05.474Z,58.51
2022-08-28T14:16:35.452Z,59.37
2022-08-28T14:19:06.212Z,59.45
2022-08-28T14:21:34.370Z,59.80
2022-08-28T14:24:01.132Z,58.37
2022-08-28T14:26:28.546Z,59.34
2022-08-28T14:28:55.284Z,59.14
2022-08-28T14:31:22.032Z,58.33
2022-08-28T14:33:53.189Z,59.82
2022-08-28T14:36:26.723Z,58.45
2022-08-28T14:38:55.975Z,57.91
2022-08-28T14:41:23.927Z,57.48
2022-08-28T14:43:51.472Z,57.41
2022-08-28T14:46:37.628Z,56.34
2022-08-28T14:49:08.470Z,55.29
2022-08-28T14:51:37.644Z,54.62
2022-08-28T14:54:06.798Z,55.19
2022-08-28T14:56:34.332Z,53.44
2022-08-28T14:59:04.666Z,52.65
2022-08-28T15:01:39.542Z,53.04
2022-08-28T15:04:10.931Z,53.55
2022-08-28T15:06:37.576Z,53.50
2022-08-28T15:09:04.165Z,52.20
2022-08-28T15:11:31.003Z,51.89
2022-08-28T15:13:57.864Z,51.87
2022-08-28T15:16:37.241Z,52.94
2022-08-28T15:19:05.083Z,51.84
2022-08-28T15:21:33.069Z,53.84
2022-08-28T15:24:01.842Z,54.70
2022-08-28T15:26:34.579Z,54.52
2022-08-28T15:29:01.136Z,53.34
2022-08-28T15:31:32.634Z,54.06
2022-08-28T15:34:03.936Z,53.55
2022-08-28T15:36:33.840Z,53.66
2022-08-28T15:39:03.733Z,54.50
2022-08-28T15:41:30.763Z,55.74
2022-08-28T15:44:00.311Z,55.98
2022-08-28T15:46:28.262Z,55.73
2022-08-28T15:48:55.610Z,56.59
2022-08-28T15:51:26.096Z,57.11
2022-08-28T15:53:54.726Z,54.03
2022-08-28T15:56:21.200Z,56.18
2022-08-28T15:58:48.103Z,53.76
2022-08-28T16:01:14.520Z,55.63
2022-08-28T16:03:41.820Z,56.90
2022-08-28T16:06:15.130Z,56.99
2022-08-28T16:08:42.685Z,56.89
2022-08-28T16:11:09.432Z,57.16
2022-08-28T16:13:35.965Z,57.21
2022-08-28T16:16:02.542Z,56.45
2022-08-28T16:18:29.352Z,56.10
2022-08-28T16:20:55.777Z,56.40
2022-08-28T16:23:22.694Z,56.14
2022-08-28T16:25:49.231Z,54.93
2022-08-28T16:28:15.832Z,55.26
2022-08-28T16:30:43.901Z,55.27
2022-08-28T16:33:11.217Z,55.96
2022-08-28T16:35:49.447Z,57.09
2022-08-28T16:38:21.381Z,57.42
2022-08-28T16:40:48.338Z,58.19
2022-08-28T16:43:15.412Z,58.73
2022-08-28T16:45:46.165Z,58.70
2022-08-28T16:48:14.617Z,59.79
2022-08-28T16:50:42.654Z,60.13
2022-08-28T16:53:09.778Z,60.39
2022-08-28T16:55:38.271Z,61.44
2022-08-28T16:58:05.392Z,62.78
2022-08-28T17:00:31.816Z,63.23
2022-08-28T17:02:59.495Z,61.83
2022-08-28T17:05:27.026Z,63.42
2022-08-28T17:07:53.577Z,63.79
2022-08-28T17:10:22.402Z,64.65
2022-08-28T17:12:49.354Z,65.74
2022-08-28T17:15:16.353Z,65.57
2022-08-28T17:17:43.149Z,66.09
2022-08-28T17:20:11.546Z,67.16
2022-08-28T17:22:38.123Z,67.31
2022-08-28T17:25:13.822Z,67.48
2022-08-28T17:27:41.497Z,68.36
2022-08-28T17:30:11.895Z,69.59
2022-08-28T17:32:38.427Z,70.31
2022-08-28T17:35:05.844Z,71.05
2022-08-28T17:37:32.801Z,72.75
2022-08-28T17:39:59.424Z,73.48
2022-08-28T17:42:25.790Z,73.21
2022-08-28T17:44:52.472Z,74.21
2022-08-28T17:47:19.049Z,74.86
2022-08-28T17:49:53.877Z,75.24
2022-08-28T17:52:20.276Z,75.83
2022-08-28T17:54:46.775Z,75.05
2022-08-28T17:57:20.369Z,76.11
2022-08-28T17:59:46.814Z,78.02
2022-08-28T18:02:13.393Z,79.76
2022-08-28T18:04:39.880Z,81.18
2022-08-28T18:07:06.308Z,82.14
2022-08-28T18:09:32.803Z,82.73
2022-08-28T18:11:59.534Z,80.97
2022-08-28T18:14:27.407Z,81.45
2022-08-28T18:16:54.056Z,81.31
2022-08-28T18:19:20.792Z,81.88
2022-08-28T18:21:47.659Z,81.79
2022-08-28T18:24:14.096Z,82.18
2022-08-28T18:26:42.155Z,84.78
2022-08-28T18:29:08.808Z,85.63
2022-08-28T18:31:35.506Z,86.81
2022-08-28T18:34:02.313Z,87.58
2022-08-28T18:36:29.043Z,88.55
2022-08-28T18:38:55.622Z,88.67
2022-08-28T18:41:26.938Z,88.89
2022-08-28T18:44:10.061Z,89.23
2022-08-28T18:46:36.555Z,89.82
2022-08-28T18:49:04.083Z,90.11
2022-08-28T18:51:30.586Z,91.03
2022-08-28T18:53:59.417Z,92.40
2022-08-28T18:56:28.031Z,92.02
2022-08-28T18:58:57.990Z,99.62
2022-08-28T19:01:24.865Z,100.00
2022-08-28T19:03:51.835Z,100.00
2022-08-28T19:06:22.267Z,100.00
2022-08-28T19:08:48.613Z,100.00
2022-08-28T19:11:17.233Z,100.00
2022-08-28T19:13:44.029Z,100.00
2022-08-28T19:16:15.451Z,100.00
2022-08-28T19:18:42.215Z,100.00
2022-08-28T19:21:16.270Z,100.00
2022-08-28T19:23:55.608Z,100.00
2022-08-28T19:26:27.781Z,100.00
2022-08-28T19:28:55.248Z,100.00
2022-08-28T19:31:26.199Z,100.00
2022-08-28T19:33:53.470Z,100.00
2022-08-28T19:36:20.195Z,100.00
2022-08-28T19:38:47.066Z,100.00
2022-08-28T19:41:14.309Z,100.00
2022-08-28T19:43:42.912Z,100.00
2022-08-28T19:46:18.446Z,100.00
2022-08-28T19:48:51.083Z,100.00
2022-08-28T19:51:23.448Z,100.00
2022-08-28T19:53:57.286Z,100.00
2022-08-28T19:56:27.414Z,100.00
2022-08-28T19:58:55.487Z,100.00
2022-08-28T20:01:24.391Z,100.00
2022-08-28T20:03:51.080Z,100.00
2022-08-28T20:06:18.599Z,100.00
2022-08-28T20:08:45.087Z,100.00
2022-08-28T20:11:17.543Z,100.00
2022-08-28T20:13:44.108Z,100.00
2022-08-28T20:16:11.146Z,100.00
2022-08-28T20:18:37.569Z,100.00
2022-08-28T20:21:04.172Z,100.00
2022-08-28T20:23:30.719Z,100.00
2022-08-28T20:25:57.072Z,100.00
2022-08-28T20:28:23.569Z,100.00
2022-08-28T20:30:50.203Z,100.00
2022-08-28T20:33:16.606Z,100.00
2022-08-28T20:35:43.359Z,100.00
2022-08-28T20:38:09.747Z,100.00
2022-08-28T20:40:36.342Z,100.00
2022-08-28T20:43:03.104Z,100.00
2022-08-28T20:45:29.815Z,100.00
2022-08-28T20:47:56.542Z,100.00
2022-08-28T20:50:25.074Z,100.00
2022-08-28T20:52:51.662Z,100.00
2022-08-28T20:55:18.159Z,100.00
2022-08-28T20:57:45.849Z,100.00
2022-08-28T21:00:12.889Z,100.00
2022-08-28T21:02:39.897Z,100.00
2022-08-28T21:05:06.892Z,100.00
2022-08-28T21:07:36.336Z,100.00
2022-08-28T21:10:08.008Z,100.00
2022-08-28T21:12:39.203Z,100.00
2022-08-28T21:15:08.954Z,100.00
2022-08-28T21:17:36.107Z,100.00
2022-08-28T21:20:07.045Z,100.00
2022-08-28T21:22:35.297Z,100.00
2022-08-28T21:25:07.557Z,100.00
2022-08-28T21:27:34.669Z,100.00
2022-08-28T21:30:01.422Z,100.00
2022-08-28T21:32:29.372Z,100.00
2022-08-28T21:34:56.602Z,100.00
2022-08-28T21:37:23.778Z,100.00
2022-08-28T21:39:50.261Z,100.00
2022-08-28T21:42:17.001Z,100.00
2022-08-28T21:44:44.615Z,100.00
2022-08-28T21:47:19.752Z,100.00
2022-08-28T21:49:48.608Z,100.00
2022-08-28T21:52:15.063Z,100.00
2022-08-28T21:54:41.606Z,100.00
2022-08-28T21:57:08.256Z,100.00
2022-08-28T21:59:37.848Z,100.00
2022-08-28T22:02:04.749Z,100.00
2022-08-28T22:04:33.238Z,100.00
2022-08-28T22:07:01.036Z,100.00
2022-08-28T22:09:28.427Z,100.00
2022-08-28T22:11:54.881Z,100.00
2022-08-28T22:14:21.224Z,100.00
2022-08-28T22:16:47.893Z,100.00
2022-08-28T22:19:14.341Z,100.00
2022-08-28T22:21:41.102Z,100.00
2022-08-28T22:24:09.130Z,100.00
2022-08-28T22:26:35.980Z,100.00
2022-08-28T22:29:02.394Z,100.00
2022-08-28T22:31:28.928Z,100.00
2022-08-28T22:33:55.407Z,100.00
2022-08-28T22:36:22.287Z,100.00
2022-08-28T22:38:53.437Z,100.00
2022-08-28T22:41:20.714Z,100.00
2022-08-28T22:43:51.177Z,100.00
2022-08-28T22:46:19.476Z,100.00
2022-08-28T22:48:46.150Z,100.00
2022-08-28T22:51:15.098Z,100.00
2022-08-28T22:53:42.898Z,100.00
2022-08-28T22:56:11.218Z,100.00
2022-08-28T22:58:39.068Z,100.00
2022-08-28T23:01:09.675Z,100.00
2022-08-28T23:03:37.264Z,100.00
2022-08-28T23:06:03.929Z,100.00
2022-08-28T23:08:33.911Z,100.00
2022-08-28T23:11:01.041Z,100.00
2022-08-28T23:13:28.370Z,100.00
2022-08-28T23:15:54.742Z,100.00
2022-08-28T23:18:21.453Z,100.00
2022-08-28T23:20:50.535Z,100.00
2022-08-28T23:23:17.368Z,100.00
2022-08-28T23:25:46.146Z,100.00
2022-08-28T23:28:13.355Z,100.00
2022-08-28T23:30:40.295Z,100.00
2022-08-28T23:33:10.581Z,100.00
2022-08-28T23:35:38.594Z,100.00
2022-08-28T23:38:05.027Z,100.00
2022-08-28T23:40:32.813Z,100.00
2022-08-28T23:43:01.618Z,100.00
2022-08-28T23:45:28.609Z,100.00
2022-08-28T23:47:55.127Z,100.00
2022-08-28T23:50:23.130Z,100.00
2022-08-28T23:52:50.280Z,100.00
2022-08-28T23:55:18.945Z,100.00
2022-08-28T23:57:45.797Z,100.00
